BOX756 ESGG-EDDP
Flight info
| Callsign | BOX756 |
|---|---|
| Flight time | 0h 59m |
| Altitude | 33000 |
| Route | TOPLA3J TOPLA L996 ERNOV DCT NIKDA/N0476F340 DCT SUVAL/N0475F350 M736 MAG Z20 KENIG T959 KOJEC KOJEC1V |
| Aircraft | B77L/H-SDE1E2E3FGHIJ2J3J4J5M1RWXY/LB1D1 |
Departure
| Time | 2026-05-04 17:20 |
|---|---|
| Airport | Göteborg Landvetter Airport (ESGG) |
Arrival
| Time | 2026-05-04 18:19 |
|---|---|
| Airport | Leipzig/Halle Airport (EDDP) |
| Time | Latitude | Longitude | Altitude | Speed | Heading |
|---|---|---|---|---|---|
| 2026-05-04 16:44 | 57.67311 | 12.29780 | 539 ft | 0 kts | 117° |
| 2026-05-04 16:47 | 57.67310 | 12.29780 | 539 ft | 0 kts | 118° |
| 2026-05-04 17:12 | 57.67321 | 12.29710 | 547 ft | 4 kts | 79° |
| 2026-05-04 17:13 | 57.67289 | 12.29636 | 536 ft | 2 kts | 25° |
| 2026-05-04 17:17 | 57.67333 | 12.29669 | 536 ft | 8 kts | 10° |
| 2026-05-04 17:18 | 57.67364 | 12.29629 | 537 ft | 0 kts | 306° |
| 2026-05-04 17:18 | 57.67443 | 12.29344 | 537 ft | 20 kts | 297° |
| 2026-05-04 17:19 | 57.67460 | 12.29228 | 536 ft | 18 kts | 276° |
| 2026-05-04 17:19 | 57.66827 | 12.28464 | 529 ft | 130 kts | 205° |
| 2026-05-04 17:20 | 57.64426 | 12.26334 | 1642 ft | 212 kts | 210° |
| 2026-05-04 17:20 | 57.61851 | 12.23928 | 3950 ft | 209 kts | 212° |
| 2026-05-04 17:20 | 57.60526 | 12.22639 | 4558 ft | 221 kts | 205° |
| 2026-05-04 17:21 | 57.57112 | 12.22471 | 5022 ft | 267 kts | 185° |
| 2026-05-04 17:21 | 57.53401 | 12.22904 | 5473 ft | 271 kts | 176° |
| 2026-05-04 17:22 | 57.51521 | 12.23474 | 5898 ft | 278 kts | 176° |
| 2026-05-04 17:22 | 57.49598 | 12.24064 | 6280 ft | 281 kts | 176° |
| 2026-05-04 17:23 | 57.43804 | 12.25753 | 7729 ft | 281 kts | 178° |
| 2026-05-04 17:23 | 57.41857 | 12.26297 | 8666 ft | 284 kts | 178° |
| 2026-05-04 17:23 | 57.37898 | 12.27379 | 10401 ft | 294 kts | 179° |
| 2026-05-04 17:24 | 57.35796 | 12.27935 | 10742 ft | 319 kts | 179° |
| 2026-05-04 17:24 | 57.28451 | 12.29892 | 11980 ft | 380 kts | 177° |
| 2026-05-04 17:25 | 57.25810 | 12.30615 | 12831 ft | 386 kts | 177° |
| 2026-05-04 17:25 | 57.20437 | 12.32072 | 14556 ft | 395 kts | 178° |
| 2026-05-04 17:26 | 57.14922 | 12.33542 | 16111 ft | 406 kts | 178° |
| 2026-05-04 17:26 | 57.06374 | 12.35704 | 18353 ft | 421 kts | 178° |
| 2026-05-04 17:27 | 57.00509 | 12.37138 | 19734 ft | 427 kts | 178° |
| 2026-05-04 17:27 | 56.94564 | 12.38599 | 21068 ft | 436 kts | 178° |
| 2026-05-04 17:28 | 56.88491 | 12.40090 | 22305 ft | 445 kts | 177° |
| 2026-05-04 17:29 | 56.79126 | 12.42383 | 24012 ft | 459 kts | 177° |
| 2026-05-04 17:29 | 56.69583 | 12.44714 | 25755 ft | 464 kts | 176° |
| 2026-05-04 17:30 | 56.59876 | 12.47066 | 27229 ft | 474 kts | 176° |
| 2026-05-04 17:31 | 56.53288 | 12.48657 | 28239 ft | 480 kts | 176° |
| 2026-05-04 17:31 | 56.43277 | 12.51064 | 29585 ft | 487 kts | 175° |
| 2026-05-04 17:32 | 56.36548 | 12.52683 | 30504 ft | 488 kts | 175° |
| 2026-05-04 17:33 | 56.26496 | 12.55105 | 31898 ft | 485 kts | 176° |
| 2026-05-04 17:33 | 56.23155 | 12.55905 | 32308 ft | 484 kts | 176° |
| 2026-05-04 17:34 | 56.13090 | 12.56857 | 32931 ft | 484 kts | 189° |
| 2026-05-04 17:34 | 56.09765 | 12.56173 | 32939 ft | 480 kts | 190° |
| 2026-05-04 17:35 | 55.93310 | 12.52889 | 32919 ft | 475 kts | 189° |
| 2026-05-04 17:36 | 55.86741 | 12.51647 | 32930 ft | 474 kts | 190° |
| 2026-05-04 17:36 | 55.81294 | 12.50621 | 32943 ft | 473 kts | 190° |
| 2026-05-04 17:37 | 55.74741 | 12.49389 | 32937 ft | 473 kts | 190° |
| 2026-05-04 17:37 | 55.68201 | 12.48161 | 32942 ft | 473 kts | 190° |
| 2026-05-04 17:38 | 55.61662 | 12.46941 | 32939 ft | 471 kts | 191° |
| 2026-05-04 17:38 | 55.55153 | 12.45728 | 32937 ft | 469 kts | 191° |
| 2026-05-04 17:39 | 55.45434 | 12.43924 | 32948 ft | 467 kts | 191° |
| 2026-05-04 17:39 | 55.38967 | 12.42728 | 32948 ft | 467 kts | 191° |
| 2026-05-04 17:40 | 55.32505 | 12.41537 | 32950 ft | 467 kts | 191° |
| 2026-05-04 17:40 | 55.26040 | 12.40350 | 32949 ft | 467 kts | 191° |
| 2026-05-04 17:41 | 55.19569 | 12.39165 | 32948 ft | 468 kts | 191° |
| 2026-05-04 17:41 | 55.13093 | 12.37984 | 32942 ft | 468 kts | 191° |
| 2026-05-04 17:42 | 55.06622 | 12.36810 | 32949 ft | 467 kts | 191° |
| 2026-05-04 17:42 | 55.00171 | 12.35641 | 32954 ft | 466 kts | 191° |
| 2026-05-04 17:43 | 54.93732 | 12.34477 | 32957 ft | 465 kts | 191° |
| 2026-05-04 17:43 | 54.87296 | 12.33318 | 32942 ft | 464 kts | 192° |
| 2026-05-04 17:44 | 54.80895 | 12.32171 | 32952 ft | 462 kts | 192° |
| 2026-05-04 17:44 | 54.74518 | 12.31028 | 32957 ft | 460 kts | 192° |
| 2026-05-04 17:45 | 54.68158 | 12.29892 | 32961 ft | 459 kts | 192° |
| 2026-05-04 17:45 | 54.61810 | 12.28763 | 32944 ft | 458 kts | 193° |
| 2026-05-04 17:46 | 54.55467 | 12.27679 | 32961 ft | 458 kts | 192° |
| 2026-05-04 17:46 | 54.49114 | 12.26641 | 32969 ft | 459 kts | 192° |
| 2026-05-04 17:47 | 54.42754 | 12.25604 | 32970 ft | 459 kts | 192° |
| 2026-05-04 17:47 | 54.36392 | 12.24563 | 32951 ft | 459 kts | 192° |
| 2026-05-04 17:48 | 54.30027 | 12.23522 | 32968 ft | 460 kts | 192° |
| 2026-05-04 17:48 | 54.23646 | 12.22480 | 32975 ft | 461 kts | 192° |
| 2026-05-04 17:49 | 54.17251 | 12.21440 | 32971 ft | 462 kts | 192° |
| 2026-05-04 17:49 | 54.10851 | 12.20403 | 32959 ft | 462 kts | 192° |
| 2026-05-04 17:50 | 54.04453 | 12.19370 | 32966 ft | 462 kts | 192° |
| 2026-05-04 17:50 | 53.98047 | 12.18338 | 32966 ft | 462 kts | 192° |
| 2026-05-04 17:51 | 53.91651 | 12.17312 | 32967 ft | 462 kts | 192° |
| 2026-05-04 17:51 | 53.85176 | 12.17462 | 32969 ft | 472 kts | 180° |
| 2026-05-04 17:52 | 53.78667 | 12.19382 | 32962 ft | 477 kts | 175° |
| 2026-05-04 17:52 | 53.72164 | 12.21672 | 32960 ft | 478 kts | 175° |
| 2026-05-04 17:53 | 53.65661 | 12.24004 | 32962 ft | 478 kts | 175° |
| 2026-05-04 17:53 | 53.59161 | 12.26339 | 32959 ft | 477 kts | 175° |
| 2026-05-04 17:54 | 53.52658 | 12.27972 | 32961 ft | 467 kts | 184° |
| 2026-05-04 17:54 | 53.46335 | 12.26847 | 32971 ft | 452 kts | 199° |
| 2026-05-04 17:55 | 53.40272 | 12.24243 | 32969 ft | 449 kts | 201° |
| 2026-05-04 17:55 | 53.34252 | 12.21450 | 32954 ft | 449 kts | 201° |
| 2026-05-04 17:56 | 53.28248 | 12.18617 | 32969 ft | 448 kts | 201° |
| 2026-05-04 17:56 | 53.22211 | 12.15927 | 32967 ft | 449 kts | 200° |
| 2026-05-04 17:57 | 53.16044 | 12.13926 | 32960 ft | 458 kts | 189° |
| 2026-05-04 17:57 | 53.09614 | 12.14306 | 32960 ft | 469 kts | 177° |
| 2026-05-04 17:58 | 53.03177 | 12.16164 | 32971 ft | 470 kts | 176° |
| 2026-05-04 17:58 | 52.96737 | 12.18094 | 32970 ft | 470 kts | 176° |
| 2026-05-04 17:59 | 52.90300 | 12.19971 | 32963 ft | 470 kts | 176° |
| 2026-05-04 18:00 | 52.80634 | 12.22719 | 32966 ft | 470 kts | 176° |
| 2026-05-04 18:00 | 52.77423 | 12.23627 | 32789 ft | 467 kts | 176° |
| 2026-05-04 18:00 | 52.74207 | 12.24533 | 32177 ft | 470 kts | 176° |
| 2026-05-04 18:00 | 52.71030 | 12.25433 | 31499 ft | 457 kts | 176° |
| 2026-05-04 18:01 | 52.67928 | 12.26314 | 30849 ft | 449 kts | 176° |
| 2026-05-04 18:01 | 52.64865 | 12.27179 | 30209 ft | 444 kts | 176° |
| 2026-05-04 18:01 | 52.61837 | 12.28030 | 29499 ft | 439 kts | 176° |
| 2026-05-04 18:02 | 52.55888 | 12.29693 | 27591 ft | 429 kts | 175° |
| 2026-05-04 18:02 | 52.52956 | 12.30512 | 26331 ft | 424 kts | 175° |
| 2026-05-04 18:02 | 52.50065 | 12.31318 | 24967 ft | 419 kts | 175° |
| 2026-05-04 18:02 | 52.47204 | 12.32115 | 23633 ft | 415 kts | 175° |
| 2026-05-04 18:03 | 52.44363 | 12.32904 | 22216 ft | 412 kts | 174° |
| 2026-05-04 18:03 | 52.41545 | 12.33686 | 21439 ft | 414 kts | 174° |
| 2026-05-04 18:03 | 52.38682 | 12.34476 | 20853 ft | 418 kts | 174° |
| 2026-05-04 18:03 | 52.35811 | 12.35270 | 20227 ft | 418 kts | 174° |
| 2026-05-04 18:04 | 52.32947 | 12.36063 | 19645 ft | 417 kts | 173° |
| 2026-05-04 18:04 | 52.30101 | 12.36853 | 19130 ft | 412 kts | 173° |
| 2026-05-04 18:04 | 52.24503 | 12.38402 | 18127 ft | 404 kts | 173° |
| 2026-05-04 18:05 | 52.21738 | 12.39166 | 17562 ft | 401 kts | 173° |
| 2026-05-04 18:05 | 52.18999 | 12.39920 | 17006 ft | 397 kts | 173° |
| 2026-05-04 18:05 | 52.16286 | 12.40665 | 16457 ft | 394 kts | 173° |
| 2026-05-04 18:05 | 52.13590 | 12.41406 | 15923 ft | 391 kts | 173° |
| 2026-05-04 18:06 | 52.08271 | 12.42864 | 14880 ft | 384 kts | 173° |
| 2026-05-04 18:06 | 52.05649 | 12.43582 | 14381 ft | 381 kts | 173° |
| 2026-05-04 18:06 | 52.03042 | 12.44294 | 13876 ft | 378 kts | 173° |
| 2026-05-04 18:07 | 52.00460 | 12.44999 | 13335 ft | 375 kts | 173° |
| 2026-05-04 18:07 | 51.97894 | 12.45698 | 12778 ft | 372 kts | 173° |
| 2026-05-04 18:07 | 51.95349 | 12.46391 | 12242 ft | 369 kts | 173° |
| 2026-05-04 18:07 | 51.92824 | 12.47078 | 11708 ft | 367 kts | 173° |
| 2026-05-04 18:08 | 51.90306 | 12.47762 | 11271 ft | 367 kts | 173° |
| 2026-05-04 18:08 | 51.87800 | 12.48442 | 10975 ft | 364 kts | 173° |
| 2026-05-04 18:08 | 51.85296 | 12.49120 | 10509 ft | 365 kts | 173° |
| 2026-05-04 18:08 | 51.82793 | 12.49797 | 10030 ft | 363 kts | 173° |
| 2026-05-04 18:09 | 51.77860 | 12.51132 | 8994 ft | 351 kts | 173° |
| 2026-05-04 18:09 | 51.73351 | 12.52355 | 7903 ft | 307 kts | 172° |
| 2026-05-04 18:10 | 51.71310 | 12.52906 | 7425 ft | 288 kts | 172° |
| 2026-05-04 18:10 | 51.69382 | 12.53424 | 6977 ft | 275 kts | 172° |
| 2026-05-04 18:10 | 51.67517 | 12.53923 | 6561 ft | 271 kts | 172° |
| 2026-05-04 18:10 | 51.65638 | 12.54425 | 6159 ft | 274 kts | 172° |
| 2026-05-04 18:11 | 51.63758 | 12.54929 | 5720 ft | 274 kts | 172° |
| 2026-05-04 18:11 | 51.61881 | 12.55432 | 5297 ft | 273 kts | 171° |
| 2026-05-04 18:11 | 51.60021 | 12.55931 | 4983 ft | 265 kts | 171° |
| 2026-05-04 18:11 | 51.58340 | 12.56845 | 4766 ft | 254 kts | 148° |
| 2026-05-04 18:12 | 51.56908 | 12.58531 | 4341 ft | 256 kts | 152° |
| 2026-05-04 18:12 | 51.55208 | 12.59296 | 3906 ft | 254 kts | 178° |
| 2026-05-04 18:12 | 51.53445 | 12.59253 | 3513 ft | 252 kts | 184° |
| 2026-05-04 18:12 | 51.51739 | 12.59077 | 3115 ft | 237 kts | 184° |
| 2026-05-04 18:13 | 51.50181 | 12.58896 | 2991 ft | 210 kts | 184° |
| 2026-05-04 18:13 | 51.48808 | 12.58728 | 2966 ft | 190 kts | 184° |
| 2026-05-04 18:13 | 51.46259 | 12.58403 | 2995 ft | 180 kts | 185° |
| 2026-05-04 18:14 | 51.45007 | 12.58159 | 2998 ft | 183 kts | 199° |
| 2026-05-04 18:14 | 51.43996 | 12.56967 | 3028 ft | 182 kts | 233° |
| 2026-05-04 18:14 | 51.43257 | 12.55314 | 3019 ft | 182 kts | 236° |
| 2026-05-04 18:15 | 51.42669 | 12.51496 | 3042 ft | 173 kts | 263° |
| 2026-05-04 18:15 | 51.42457 | 12.47989 | 3023 ft | 157 kts | 266° |
| 2026-05-04 18:15 | 51.42371 | 12.46235 | 2996 ft | 159 kts | 266° |
| 2026-05-04 18:16 | 51.42286 | 12.44435 | 2761 ft | 162 kts | 266° |
| 2026-05-04 18:16 | 51.42202 | 12.42651 | 2548 ft | 159 kts | 266° |
| 2026-05-04 18:16 | 51.42121 | 12.40911 | 2340 ft | 156 kts | 266° |
| 2026-05-04 18:17 | 51.41984 | 12.38000 | 2003 ft | 157 kts | 266° |
| 2026-05-04 18:17 | 51.41902 | 12.36254 | 1793 ft | 157 kts | 266° |
| 2026-05-04 18:17 | 51.41743 | 12.32858 | 1375 ft | 151 kts | 266° |
| 2026-05-04 18:18 | 51.41664 | 12.31169 | 1188 ft | 153 kts | 266° |
| 2026-05-04 18:18 | 51.41583 | 12.29459 | 991 ft | 155 kts | 266° |
| 2026-05-04 18:18 | 51.41500 | 12.27707 | 779 ft | 156 kts | 266° |
| 2026-05-04 18:18 | 51.41420 | 12.26006 | 578 ft | 155 kts | 266° |
| 2026-05-04 18:19 | 51.41283 | 12.23064 | 468 ft | 45 kts | 265° |
| 2026-05-04 18:19 | 51.41252 | 12.22764 | 465 ft | 22 kts | 249° |
| 2026-05-04 18:19 | 51.41182 | 12.22557 | 462 ft | 11 kts | 233° |
| 2026-05-04 18:20 | 51.41161 | 12.22525 | 462 ft | 2 kts | 218° |
| 2026-05-04 18:20 | 51.41150 | 12.22510 | 462 ft | 2 kts | 223° |
| 2026-05-04 18:20 | 51.41137 | 12.22486 | 461 ft | 3 kts | 229° |
| 2026-05-04 18:20 | 51.41120 | 12.22448 | 461 ft | 5 kts | 239° |
| 2026-05-04 18:21 | 51.41107 | 12.22398 | 460 ft | 3 kts | 249° |
| 2026-05-04 18:21 | 51.41097 | 12.22367 | 460 ft | 4 kts | 242° |
| 2026-05-04 18:21 | 51.41077 | 12.22334 | 460 ft | 4 kts | 215° |
| 2026-05-04 18:21 | 51.41050 | 12.22317 | 461 ft | 4 kts | 193° |
| 2026-05-04 18:22 | 51.41021 | 12.22321 | 462 ft | 4 kts | 161° |
| 2026-05-04 18:22 | 51.41001 | 12.22354 | 462 ft | 4 kts | 119° |
| 2026-05-04 18:22 | 51.40997 | 12.22403 | 462 ft | 5 kts | 92° |
| 2026-05-04 18:22 | 51.40997 | 12.22454 | 462 ft | 5 kts | 88° |
| 2026-05-04 18:23 | 51.40999 | 12.22505 | 462 ft | 5 kts | 83° |
| 2026-05-04 18:23 | 51.41003 | 12.22556 | 463 ft | 5 kts | 85° |
| 2026-05-04 18:23 | 51.41005 | 12.22608 | 465 ft | 5 kts | 87° |
| 2026-05-04 18:23 | 51.41005 | 12.22659 | 466 ft | 5 kts | 89° |
| 2026-05-04 18:24 | 51.41006 | 12.22710 | 467 ft | 5 kts | 88° |
| 2026-05-04 18:24 | 51.41012 | 12.22839 | 467 ft | 19 kts | 85° |
| 2026-05-04 18:24 | 51.41024 | 12.23051 | 471 ft | 19 kts | 85° |
| 2026-05-04 18:24 | 51.41033 | 12.23264 | 470 ft | 19 kts | 86° |
| 2026-05-04 18:25 | 51.41044 | 12.23477 | 470 ft | 19 kts | 85° |
| 2026-05-04 18:25 | 51.41053 | 12.23691 | 475 ft | 19 kts | 86° |
| 2026-05-04 18:25 | 51.41062 | 12.23906 | 466 ft | 20 kts | 85° |
| 2026-05-04 18:25 | 51.41074 | 12.24131 | 465 ft | 20 kts | 85° |
| 2026-05-04 18:26 | 51.41085 | 12.24355 | 470 ft | 20 kts | 86° |
| 2026-05-04 18:26 | 51.41093 | 12.24564 | 469 ft | 17 kts | 92° |
| 2026-05-04 18:26 | 51.41037 | 12.24648 | 472 ft | 11 kts | 171° |
| 2026-05-04 18:26 | 51.40965 | 12.24667 | 468 ft | 10 kts | 154° |
| 2026-05-04 18:27 | 51.40947 | 12.24769 | 467 ft | 10 kts | 88° |
| 2026-05-04 18:27 | 51.40949 | 12.24812 | 468 ft | 0 kts | 87° |